createdAt,value
2023-03-07T00:01:47.049Z,100.00
2023-03-07T00:04:14.849Z,100.00
2023-03-07T00:06:42.564Z,100.00
2023-03-07T00:09:10.740Z,100.00
2023-03-07T00:11:38.553Z,100.00
2023-03-07T00:14:08.458Z,100.00
2023-03-07T00:16:37.585Z,100.00
2023-03-07T00:19:05.474Z,100.00
2023-03-07T00:21:33.317Z,100.00
2023-03-07T00:24:01.124Z,100.00
2023-03-07T00:26:28.994Z,100.00
2023-03-07T00:28:56.876Z,100.00
2023-03-07T00:31:25.259Z,100.00
2023-03-07T00:33:54.419Z,100.00
2023-03-07T00:36:23.816Z,100.00
2023-03-07T00:38:52.393Z,100.00
2023-03-07T00:41:22.685Z,100.00
2023-03-07T00:43:50.642Z,100.00
2023-03-07T00:46:20.065Z,100.00
2023-03-07T00:48:48.066Z,100.00
2023-03-07T00:51:22.607Z,100.00
2023-03-07T00:53:50.744Z,100.00
2023-03-07T00:56:20.729Z,100.00
2023-03-07T00:58:49.022Z,100.00
2023-03-07T01:01:20.082Z,100.00
2023-03-07T01:03:49.667Z,100.00
2023-03-07T01:06:21.472Z,100.00
2023-03-07T01:08:49.378Z,100.00
2023-03-07T01:11:18.016Z,100.00
2023-03-07T01:13:46.059Z,100.00
2023-03-07T01:16:17.955Z,100.00
2023-03-07T01:18:49.107Z,100.00
2023-03-07T01:21:20.642Z,100.00
2023-03-07T01:23:49.137Z,100.00
2023-03-07T01:26:18.288Z,100.00
2023-03-07T01:28:46.851Z,100.00
2023-03-07T01:31:15.402Z,100.00
2023-03-07T01:33:43.238Z,100.00
2023-03-07T01:36:20.229Z,100.00
2023-03-07T01:38:49.158Z,100.00
2023-03-07T01:41:17.689Z,100.00
2023-03-07T01:43:45.861Z,100.00
2023-03-07T01:46:43.563Z,100.00
2023-03-07T01:49:17.378Z,100.00
2023-03-07T01:51:50.644Z,100.00
2023-03-07T01:54:21.183Z,100.00
2023-03-07T01:56:49.462Z,100.00
2023-03-07T01:59:22.732Z,100.00
2023-03-07T02:01:51.593Z,100.00
2023-03-07T02:04:24.893Z,100.00
2023-03-07T02:06:54.119Z,100.00
2023-03-07T02:09:24.950Z,100.00
2023-03-07T02:11:53.444Z,100.00
2023-03-07T02:14:21.164Z,100.00
2023-03-07T02:16:49.552Z,100.00
2023-03-07T02:19:31.210Z,100.00
2023-03-07T02:22:10.346Z,100.00
2023-03-07T02:24:45.138Z,100.00
2023-03-07T02:27:15.040Z,100.00
2023-03-07T02:29:42.891Z,100.00
2023-03-07T02:32:11.136Z,100.00
2023-03-07T02:34:39.021Z,100.00
2023-03-07T02:37:09.991Z,100.00
2023-03-07T02:39:40.383Z,100.00
2023-03-07T02:42:11.267Z,100.00
2023-03-07T02:44:40.649Z,100.00
2023-03-07T02:47:09.945Z,100.00
2023-03-07T02:49:37.697Z,100.00
2023-03-07T02:52:06.345Z,100.00
2023-03-07T02:54:34.149Z,100.00
2023-03-07T02:57:02.212Z,100.00
2023-03-07T02:59:29.975Z,100.00
2023-03-07T03:01:59.354Z,99.29
2023-03-07T03:04:27.497Z,98.77
2023-03-07T03:06:55.265Z,99.34
2023-03-07T03:09:23.609Z,100.00
2023-03-07T03:11:51.775Z,100.00
2023-03-07T03:14:19.564Z,100.00
2023-03-07T03:16:47.504Z,99.87
2023-03-07T03:19:16.732Z,96.92
2023-03-07T03:21:45.197Z,98.06
2023-03-07T03:24:13.108Z,96.81
2023-03-07T03:26:40.865Z,100.00
2023-03-07T03:29:09.851Z,94.88
2023-03-07T03:31:37.678Z,98.62
2023-03-07T03:34:05.895Z,97.79
2023-03-07T03:36:35.069Z,98.10
2023-03-07T03:39:03.826Z,99.83
2023-03-07T03:41:31.951Z,96.06
2023-03-07T03:43:59.649Z,91.74
2023-03-07T03:46:27.598Z,90.10
2023-03-07T03:48:56.203Z,97.25
2023-03-07T03:51:25.256Z,91.23
2023-03-07T03:53:55.020Z,98.45
2023-03-07T03:56:24.544Z,96.87
2023-03-07T03:58:54.132Z,97.76
2023-03-07T04:01:24.144Z,96.74
2023-03-07T04:03:53.806Z,97.88
2023-03-07T04:06:24.123Z,96.22
2023-03-07T04:08:53.614Z,92.38
2023-03-07T04:11:24.369Z,97.33
2023-03-07T04:13:52.720Z,99.92
2023-03-07T04:16:22.564Z,95.15
2023-03-07T04:18:51.230Z,98.53
2023-03-07T04:21:19.646Z,99.20
2023-03-07T04:23:49.848Z,91.80
2023-03-07T04:26:18.173Z,92.14
2023-03-07T04:28:49.595Z,96.10
2023-03-07T04:31:19.929Z,95.80
2023-03-07T04:33:48.724Z,97.39
2023-03-07T04:36:17.466Z,100.00
2023-03-07T04:38:46.064Z,100.00
2023-03-07T04:41:15.508Z,100.00
2023-03-07T04:43:43.897Z,96.85
2023-03-07T04:46:14.715Z,99.92
2023-03-07T04:48:43.578Z,99.37
2023-03-07T04:51:11.396Z,89.13
2023-03-07T04:53:39.172Z,94.62
2023-03-07T04:56:09.240Z,99.62
2023-03-07T04:58:37.667Z,94.59
2023-03-07T05:01:06.743Z,92.82
2023-03-07T05:03:37.005Z,90.03
2023-03-07T05:06:06.574Z,95.31
2023-03-07T05:08:35.269Z,97.96
2023-03-07T05:11:03.751Z,94.05
2023-03-07T05:13:31.595Z,97.05
2023-03-07T05:16:00.251Z,94.82
2023-03-07T05:18:28.886Z,91.29
2023-03-07T05:20:58.479Z,97.78
2023-03-07T05:23:26.399Z,97.78
2023-03-07T05:25:54.162Z,94.32
2023-03-07T05:28:21.979Z,91.44
2023-03-07T05:30:50.433Z,97.02
2023-03-07T05:33:18.180Z,98.68
2023-03-07T05:35:46.873Z,99.57
2023-03-07T05:38:16.597Z,96.61
2023-03-07T05:40:44.558Z,95.28
2023-03-07T05:43:12.472Z,100.00
2023-03-07T05:45:40.250Z,100.00
2023-03-07T05:48:08.511Z,100.00
2023-03-07T05:50:38.035Z,97.33
2023-03-07T05:53:06.780Z,95.46
2023-03-07T05:55:36.018Z,98.65
2023-03-07T05:58:03.872Z,96.90
2023-03-07T06:00:31.886Z,95.51
2023-03-07T06:03:00.188Z,99.05
2023-03-07T06:05:28.407Z,100.00
2023-03-07T06:07:56.197Z,97.68
2023-03-07T06:10:24.288Z,100.00
2023-03-07T06:12:54.408Z,100.00
2023-03-07T06:15:24.758Z,89.65
2023-03-07T06:17:53.573Z,98.38
2023-03-07T06:20:21.826Z,95.72
2023-03-07T06:22:49.581Z,95.78
2023-03-07T06:25:17.549Z,100.00
2023-03-07T06:27:45.534Z,96.60
2023-03-07T06:30:15.397Z,97.20
2023-03-07T06:32:43.248Z,100.00
2023-03-07T06:35:11.366Z,95.10
2023-03-07T06:37:39.117Z,92.69
2023-03-07T06:40:09.533Z,95.13
2023-03-07T06:42:37.779Z,86.13
2023-03-07T06:45:06.937Z,82.74
2023-03-07T06:47:36.040Z,75.27
2023-03-07T06:50:04.322Z,80.72
2023-03-07T06:52:32.137Z,78.16
2023-03-07T06:55:00.633Z,77.52
2023-03-07T06:57:29.466Z,78.67
2023-03-07T06:59:57.327Z,79.17
2023-03-07T07:02:25.318Z,76.08
2023-03-07T07:04:55.258Z,72.08
2023-03-07T07:07:23.080Z,72.95
2023-03-07T07:09:50.865Z,73.48
2023-03-07T07:12:19.250Z,69.64
2023-03-07T07:14:47.313Z,70.06
2023-03-07T07:17:15.148Z,66.94
2023-03-07T07:19:42.904Z,70.05
2023-03-07T07:22:12.162Z,68.51
2023-03-07T07:24:40.009Z,68.89
2023-03-07T07:27:07.971Z,69.45
2023-03-07T07:29:36.111Z,67.06
2023-03-07T07:32:04.138Z,67.17
2023-03-07T07:34:32.078Z,67.45
2023-03-07T07:37:00.508Z,67.54
2023-03-07T07:39:29.756Z,66.54
2023-03-07T07:41:57.533Z,65.13
2023-03-07T07:44:25.844Z,63.62
2023-03-07T07:46:53.629Z,63.25
2023-03-07T07:49:21.405Z,64.28
2023-03-07T07:51:49.579Z,64.13
2023-03-07T07:54:17.365Z,63.96
2023-03-07T07:56:46.669Z,64.21
2023-03-07T07:59:15.137Z,64.04
2023-03-07T08:01:43.820Z,63.76
2023-03-07T08:04:11.589Z,64.58
2023-03-07T08:06:39.910Z,63.11
2023-03-07T08:09:07.780Z,62.32
2023-03-07T08:11:35.869Z,63.42
2023-03-07T08:14:04.987Z,61.08
2023-03-07T08:16:32.770Z,63.12
2023-03-07T08:19:01.670Z,62.61
2023-03-07T08:21:30.112Z,62.50
2023-03-07T08:23:58.322Z,63.69
2023-03-07T08:26:26.732Z,61.96
2023-03-07T08:28:54.800Z,61.98
2023-03-07T08:31:25.509Z,61.76
2023-03-07T08:33:53.828Z,65.57
2023-03-07T08:36:22.475Z,62.07
2023-03-07T08:38:52.155Z,62.48
2023-03-07T08:41:21.327Z,60.64
2023-03-07T08:43:49.600Z,61.08
2023-03-07T08:46:18.211Z,60.27
2023-03-07T08:48:47.606Z,60.69
2023-03-07T08:51:17.014Z,61.33
2023-03-07T08:53:46.165Z,61.42
2023-03-07T08:56:15.577Z,60.51
2023-03-07T08:58:43.472Z,58.33
2023-03-07T09:01:12.912Z,58.78
2023-03-07T09:03:40.704Z,57.74
2023-03-07T09:06:15.860Z,57.28
2023-03-07T09:08:43.757Z,56.98
2023-03-07T09:11:11.536Z,56.86
2023-03-07T09:13:50.954Z,56.09
2023-03-07T09:16:19.852Z,56.02
2023-03-07T09:18:47.724Z,56.06
2023-03-07T09:21:16.904Z,54.47
2023-03-07T09:23:45.067Z,52.50
2023-03-07T09:26:13.512Z,53.53
2023-03-07T09:28:41.361Z,53.92
2023-03-07T09:31:10.171Z,54.42
2023-03-07T09:33:38.199Z,54.68
2023-03-07T09:36:06.654Z,54.43
2023-03-07T09:38:36.095Z,56.42
2023-03-07T09:41:10.674Z,54.57
2023-03-07T09:43:48.374Z,54.75
2023-03-07T09:46:28.615Z,53.74
2023-03-07T09:49:17.623Z,52.43
2023-03-07T09:51:47.681Z,52.67
2023-03-07T09:54:19.464Z,50.52
2023-03-07T09:56:50.531Z,50.26
2023-03-07T09:59:23.967Z,49.54
2023-03-07T10:01:56.210Z,49.33
2023-03-07T10:04:29.082Z,48.87
2023-03-07T10:06:59.469Z,49.91
2023-03-07T10:09:29.224Z,49.65
2023-03-07T10:12:19.112Z,48.71
2023-03-07T10:14:59.259Z,48.65
2023-03-07T10:17:43.264Z,48.48
2023-03-07T10:20:22.652Z,48.53
2023-03-07T10:22:57.614Z,48.48
2023-03-07T10:25:29.917Z,50.13
2023-03-07T10:28:03.090Z,48.88
2023-03-07T10:30:33.031Z,49.90
2023-03-07T10:33:01.826Z,50.46
2023-03-07T10:35:41.129Z,49.17
2023-03-07T10:38:20.982Z,50.42
2023-03-07T10:40:55.307Z,49.40
2023-03-07T10:43:26.133Z,47.03
2023-03-07T10:45:59.887Z,48.29
2023-03-07T10:48:29.391Z,49.80
2023-03-07T10:51:06.674Z,48.86
2023-03-07T10:53:38.055Z,48.16
2023-03-07T10:56:16.234Z,44.80
2023-03-07T10:59:02.712Z,44.89
2023-03-07T11:01:31.418Z,43.44
2023-03-07T11:04:01.923Z,41.12
2023-03-07T11:06:40.562Z,39.77
2023-03-07T11:09:29.849Z,39.32
2023-03-07T11:12:01.352Z,38.81
2023-03-07T11:14:30.803Z,37.30
2023-03-07T11:17:00.208Z,38.61
2023-03-07T11:19:33.329Z,39.19
2023-03-07T11:22:03.669Z,37.88
2023-03-07T11:24:34.719Z,37.06
2023-03-07T11:27:04.020Z,36.39
2023-03-07T11:29:33.672Z,36.53
2023-03-07T11:32:11.518Z,36.05
2023-03-07T11:34:44.039Z,35.72
2023-03-07T11:37:35.848Z,36.61
2023-03-07T11:40:22.988Z,34.77
2023-03-07T11:43:02.953Z,36.53
2023-03-07T11:45:38.554Z,36.85
2023-03-07T11:48:15.132Z,35.86
2023-03-07T11:50:50.141Z,36.33
2023-03-07T11:53:42.955Z,37.53
2023-03-07T11:56:35.016Z,37.51
2023-03-07T11:59:37.854Z,40.18
2023-03-07T12:02:27.089Z,37.08
2023-03-07T12:05:12.397Z,34.97
2023-03-07T12:08:04.378Z,35.25
2023-03-07T12:10:45.772Z,35.56
2023-03-07T12:13:26.948Z,34.45
2023-03-07T12:16:06.304Z,35.00
2023-03-07T12:18:54.315Z,35.71
2023-03-07T12:21:37.887Z,36.00
2023-03-07T12:24:14.435Z,37.24
2023-03-07T12:26:53.211Z,36.33
2023-03-07T12:29:32.642Z,37.62
2023-03-07T12:32:06.086Z,39.23
2023-03-07T12:34:41.981Z,37.58
2023-03-07T12:37:14.189Z,37.94
2023-03-07T12:39:50.600Z,37.77
2023-03-07T12:42:31.416Z,38.53
2023-03-07T12:45:01.890Z,40.84
2023-03-07T12:47:36.004Z,41.63
2023-03-07T12:50:13.894Z,44.88
2023-03-07T12:52:46.988Z,46.15
2023-03-07T12:55:27.273Z,45.81
2023-03-07T12:58:04.145Z,46.99
2023-03-07T13:00:36.571Z,44.75
2023-03-07T13:03:06.740Z,45.15
2023-03-07T13:05:38.416Z,43.96
2023-03-07T13:08:08.816Z,42.46
2023-03-07T13:10:37.607Z,43.04
2023-03-07T13:13:46.085Z,44.07
2023-03-07T13:16:32.534Z,45.31
2023-03-07T13:19:33.484Z,46.14
2023-03-07T13:22:03.311Z,47.13
2023-03-07T13:24:35.852Z,47.10
2023-03-07T13:27:04.233Z,47.94
2023-03-07T13:30:03.985Z,47.77
2023-03-07T13:32:59.684Z,47.70
2023-03-07T13:35:57.027Z,47.65
2023-03-07T13:38:44.097Z,47.39
2023-03-07T13:41:13.444Z,47.93
2023-03-07T13:43:59.775Z,47.55
2023-03-07T13:46:55.134Z,49.01
2023-03-07T13:49:52.748Z,49.33
2023-03-07T13:52:27.462Z,49.52
2023-03-07T13:54:58.045Z,50.37
2023-03-07T13:57:30.973Z,49.94
2023-03-07T13:59:58.777Z,50.10
2023-03-07T14:02:28.062Z,50.41
2023-03-07T14:04:58.475Z,51.97
2023-03-07T14:07:28.216Z,50.13
2023-03-07T14:10:05.430Z,51.31
2023-03-07T14:12:56.780Z,52.10
2023-03-07T14:15:30.668Z,51.38
2023-03-07T14:18:16.687Z,52.48
2023-03-07T14:20:56.249Z,53.07
2023-03-07T14:23:50.547Z,53.12
2023-03-07T14:26:22.214Z,52.84
2023-03-07T14:28:52.221Z,52.07
2023-03-07T14:31:26.350Z,52.04
2023-03-07T14:33:54.982Z,52.55
2023-03-07T14:36:25.098Z,53.60
2023-03-07T14:38:56.788Z,53.03
2023-03-07T14:41:47.424Z,53.82
2023-03-07T14:44:36.100Z,53.84
2023-03-07T14:47:20.475Z,53.76
2023-03-07T14:49:57.708Z,53.92
2023-03-07T14:52:31.246Z,54.29
2023-03-07T14:55:02.629Z,54.23
2023-03-07T14:57:35.132Z,54.80
2023-03-07T15:00:14.809Z,54.12
2023-03-07T15:02:50.312Z,55.11
2023-03-07T15:05:19.822Z,54.76
2023-03-07T15:07:48.180Z,55.22
2023-03-07T15:10:17.787Z,55.97
2023-03-07T15:12:52.785Z,55.89
2023-03-07T15:15:31.525Z,55.78
2023-03-07T15:18:04.403Z,56.20
2023-03-07T15:20:33.139Z,56.80
2023-03-07T15:23:05.167Z,56.67
2023-03-07T15:25:33.620Z,56.29
2023-03-07T15:28:05.413Z,56.10
2023-03-07T15:30:35.236Z,56.86
2023-03-07T15:33:13.328Z,57.44
2023-03-07T15:35:41.377Z,57.56
2023-03-07T15:38:16.208Z,58.03
2023-03-07T15:40:44.221Z,57.78
2023-03-07T15:43:26.363Z,57.85
2023-03-07T15:46:06.218Z,58.74
2023-03-07T15:48:38.789Z,58.70
2023-03-07T15:51:12.790Z,60.11
2023-03-07T15:53:42.737Z,60.77
2023-03-07T15:56:25.039Z,60.95
2023-03-07T15:58:55.775Z,58.84
2023-03-07T16:01:26.194Z,59.83
2023-03-07T16:03:56.458Z,60.27
2023-03-07T16:06:39.981Z,59.47
2023-03-07T16:09:11.507Z,59.35
2023-03-07T16:11:40.036Z,60.21
2023-03-07T16:14:21.547Z,60.39
2023-03-07T16:16:50.153Z,60.78
2023-03-07T16:19:17.925Z,60.99
2023-03-07T16:21:45.761Z,60.93
2023-03-07T16:24:13.659Z,61.23
2023-03-07T16:26:43.821Z,61.68
2023-03-07T16:29:16.775Z,61.95
2023-03-07T16:31:45.292Z,63.36
2023-03-07T16:34:16.850Z,62.76
2023-03-07T16:36:44.691Z,63.06
2023-03-07T16:39:13.558Z,63.51
2023-03-07T16:41:45.475Z,62.87
2023-03-07T16:44:18.529Z,62.65
2023-03-07T16:46:52.594Z,63.40
2023-03-07T16:49:21.972Z,63.54
2023-03-07T16:52:04.503Z,65.51
2023-03-07T16:54:33.771Z,65.58
2023-03-07T16:57:03.770Z,66.43
2023-03-07T16:59:35.735Z,65.55
2023-03-07T17:02:12.704Z,66.33
2023-03-07T17:04:41.907Z,66.19
2023-03-07T17:07:17.509Z,66.88
2023-03-07T17:09:45.783Z,66.39
2023-03-07T17:12:13.733Z,66.82
2023-03-07T17:14:43.376Z,68.65
2023-03-07T17:17:18.719Z,68.65
2023-03-07T17:19:46.496Z,68.50
2023-03-07T17:22:14.302Z,68.60
2023-03-07T17:24:42.124Z,68.07
2023-03-07T17:27:10.103Z,69.12
2023-03-07T17:29:42.156Z,69.36
2023-03-07T17:32:11.463Z,69.98
2023-03-07T17:34:39.734Z,70.27
2023-03-07T17:37:08.677Z,69.72
2023-03-07T17:39:36.549Z,71.14
2023-03-07T17:42:04.748Z,69.74
2023-03-07T17:44:33.132Z,69.75
2023-03-07T17:47:01.055Z,70.03
2023-03-07T17:49:35.439Z,69.27
2023-03-07T17:52:03.596Z,69.40
2023-03-07T17:54:31.884Z,70.51
2023-03-07T17:56:59.996Z,69.21
2023-03-07T17:59:28.218Z,69.48
2023-03-07T18:01:56.086Z,68.86
2023-03-07T18:04:23.876Z,68.50
2023-03-07T18:06:53.005Z,68.63
2023-03-07T18:09:23.311Z,69.07
2023-03-07T18:11:51.210Z,69.01
2023-03-07T18:14:19.644Z,68.86
2023-03-07T18:16:47.567Z,69.38
2023-03-07T18:19:25.714Z,68.77
2023-03-07T18:21:56.670Z,69.17
2023-03-07T18:24:27.181Z,69.03
2023-03-07T18:26:55.774Z,69.32
2023-03-07T18:29:24.970Z,67.95
2023-03-07T18:31:53.554Z,68.66
2023-03-07T18:34:21.458Z,69.27
2023-03-07T18:36:51.598Z,69.59
2023-03-07T18:39:21.410Z,70.45
2023-03-07T18:41:51.426Z,70.36
2023-03-07T18:44:21.537Z,70.17
2023-03-07T18:46:49.406Z,69.87
2023-03-07T18:49:17.882Z,71.07
2023-03-07T18:51:48.424Z,70.42
2023-03-07T18:54:16.597Z,72.59
2023-03-07T18:56:47.815Z,71.91
2023-03-07T18:59:16.461Z,71.63
2023-03-07T19:01:46.412Z,71.39
2023-03-07T19:04:15.654Z,72.65
2023-03-07T19:06:47.523Z,72.86
2023-03-07T19:09:17.048Z,72.06
2023-03-07T19:11:44.849Z,72.85
2023-03-07T19:14:14.213Z,72.45
2023-03-07T19:16:42.269Z,73.42
2023-03-07T19:19:10.488Z,75.88
2023-03-07T19:21:38.267Z,74.28
2023-03-07T19:24:07.858Z,74.92
2023-03-07T19:26:40.424Z,73.97
2023-03-07T19:29:10.091Z,74.17
2023-03-07T19:31:39.294Z,74.88
2023-03-07T19:34:07.189Z,73.97
2023-03-07T19:36:37.345Z,73.14
2023-03-07T19:39:08.842Z,75.53
2023-03-07T19:41:37.710Z,78.18
2023-03-07T19:44:11.863Z,75.79
2023-03-07T19:46:46.491Z,75.58
2023-03-07T19:49:15.648Z,75.38
2023-03-07T19:51:43.644Z,75.32
2023-03-07T19:54:14.071Z,76.66
2023-03-07T19:56:42.617Z,76.23
2023-03-07T19:59:10.529Z,76.05
2023-03-07T20:01:38.385Z,75.58
2023-03-07T20:04:07.880Z,76.08
2023-03-07T20:06:36.034Z,77.14
2023-03-07T20:09:04.234Z,76.55
2023-03-07T20:11:33.754Z,77.65
2023-03-07T20:14:04.745Z,78.01
2023-03-07T20:16:36.138Z,78.38
2023-03-07T20:19:09.366Z,79.01
2023-03-07T20:21:38.888Z,79.62
2023-03-07T20:24:08.655Z,80.37
2023-03-07T20:26:38.592Z,81.99
2023-03-07T20:29:08.511Z,80.17
2023-03-07T20:31:39.159Z,82.48
2023-03-07T20:34:07.431Z,82.53
2023-03-07T20:36:36.934Z,82.16
2023-03-07T20:39:11.835Z,84.14
2023-03-07T20:41:39.697Z,87.14
2023-03-07T20:44:09.302Z,87.19
2023-03-07T20:46:39.273Z,88.61
2023-03-07T20:49:07.271Z,85.24
2023-03-07T20:51:37.015Z,83.84
2023-03-07T20:54:11.870Z,84.33
2023-03-07T20:56:40.842Z,83.77
2023-03-07T20:59:12.868Z,84.18
2023-03-07T21:01:44.138Z,84.36
2023-03-07T21:04:15.167Z,82.85
2023-03-07T21:06:44.528Z,82.22
2023-03-07T21:09:17.837Z,85.33
2023-03-07T21:11:46.976Z,83.55
2023-03-07T21:14:15.583Z,82.14
2023-03-07T21:16:44.133Z,84.82
2023-03-07T21:19:12.255Z,83.50
2023-03-07T21:21:40.626Z,83.11
2023-03-07T21:24:09.038Z,86.69
2023-03-07T21:26:38.341Z,84.66
2023-03-07T21:29:10.396Z,84.19
2023-03-07T21:31:38.791Z,81.45
2023-03-07T21:34:08.889Z,83.52
2023-03-07T21:36:40.921Z,84.94
2023-03-07T21:39:09.947Z,82.75
2023-03-07T21:41:39.397Z,83.22
2023-03-07T21:44:07.335Z,83.55
2023-03-07T21:46:35.365Z,83.61
2023-03-07T21:49:03.187Z,83.82
2023-03-07T21:51:30.976Z,82.93
2023-03-07T21:53:58.874Z,82.84
2023-03-07T21:56:27.033Z,84.10
2023-03-07T21:58:56.172Z,82.51
2023-03-07T22:01:25.878Z,82.54
2023-03-07T22:03:54.278Z,82.59
2023-03-07T22:06:22.997Z,83.42
2023-03-07T22:08:51.069Z,81.61
2023-03-07T22:11:18.873Z,81.96
2023-03-07T22:13:47.115Z,82.18
2023-03-07T22:16:20.464Z,81.25
2023-03-07T22:18:52.785Z,82.50
2023-03-07T22:21:21.205Z,84.59
2023-03-07T22:23:48.953Z,83.53
2023-03-07T22:26:16.794Z,82.82
2023-03-07T22:28:44.594Z,82.16
2023-03-07T22:31:13.451Z,84.01
2023-03-07T22:33:42.899Z,83.37
2023-03-07T22:36:14.239Z,82.65
2023-03-07T22:38:42.794Z,81.73
2023-03-07T22:41:13.748Z,83.12
2023-03-07T22:43:41.780Z,83.49
2023-03-07T22:46:10.584Z,84.29
2023-03-07T22:48:38.582Z,83.39
2023-03-07T22:51:12.898Z,83.29
2023-03-07T22:53:40.616Z,83.36
2023-03-07T22:56:15.903Z,83.23
2023-03-07T22:58:43.691Z,84.21
2023-03-07T23:01:13.848Z,82.75
2023-03-07T23:03:41.741Z,82.67
2023-03-07T23:06:10.888Z,84.29
2023-03-07T23:08:38.607Z,82.94
2023-03-07T23:11:08.904Z,82.22
2023-03-07T23:13:36.754Z,81.61
2023-03-07T23:16:08.159Z,83.00
2023-03-07T23:18:36.148Z,82.70
2023-03-07T23:21:04.558Z,81.65
2023-03-07T23:23:33.841Z,82.52
2023-03-07T23:26:01.849Z,82.47
2023-03-07T23:28:29.706Z,82.81
2023-03-07T23:30:57.651Z,82.37
2023-03-07T23:33:25.571Z,82.29
2023-03-07T23:35:53.689Z,82.18
2023-03-07T23:38:21.773Z,82.62
2023-03-07T23:40:50.925Z,83.59
2023-03-07T23:43:18.602Z,84.72
2023-03-07T23:45:46.417Z,85.65
2023-03-07T23:48:14.438Z,88.17
2023-03-07T23:50:42.178Z,89.25
2023-03-07T23:53:09.884Z,86.82
2023-03-07T23:55:41.621Z,85.76
2023-03-07T23:58:10.749Z,84.83
